Time;durP1;ratioP1;P1;durP2;ratioP2;P2;SDS_P1;SDS_P2;PMS_P1;PMS_P2;Temp;Humidity;BMP_temperature;BMP_pressure;BME280_temperature;BME280_humidity;BME280_pressure;Samples;Min_cycle;Max_cycle;Signal;HPM_P1;HPM_P2
2022/12/31 00:01:15;;;;;;;27.17;16.65;;;;;;;6.60;55.80;94855.88;4987278;28;20066;-75
2022/12/31 00:03:41;;;;;;;20.92;14.45;;;;;;;6.56;55.87;94840.75;4992152;28;20072;-76
2022/12/31 00:06:28;;;;;;;18.42;13.73;;;;;;;6.57;55.92;94847.66;4987438;28;20038;-76
2022/12/31 00:08:55;;;;;;;17.10;13.40;;;;;;;6.64;56.21;94845.56;4991355;28;20473;-76
2022/12/31 00:11:23;;;;;;;17.92;13.63;;;;;;;6.68;55.95;94836.81;4992000;28;20057;-75
2022/12/31 00:13:50;;;;;;;19.35;12.63;;;;;;;6.73;56.04;94828.91;4989362;28;20042;-77
2022/12/31 00:16:25;;;;;;;18.73;12.98;;;;;;;6.89;55.78;94839.47;4992416;28;20046;-76
2022/12/31 00:18:53;;;;;;;18.90;13.68;;;;;;;6.87;56.02;94839.75;5003631;28;20037;-75
2022/12/31 00:21:20;;;;;;;21.77;15.32;;;;;;;6.81;55.49;94825.72;4991023;28;20500;-75
2022/12/31 00:23:46;;;;;;;21.25;15.43;;;;;;;6.97;55.75;94844.22;4989011;28;20049;-76
2022/12/31 00:26:14;;;;;;;21.00;15.50;;;;;;;7.22;55.21;94841.56;4989937;28;20053;-75
2022/12/31 00:28:40;;;;;;;24.90;16.98;;;;;;;7.05;55.55;94846.34;4985043;28;20041;-76
2022/12/31 00:31:15;;;;;;;23.08;15.77;;;;;;;6.96;55.76;94832.06;4989097;28;20740;-75
2022/12/31 00:33:41;;;;;;;21.25;14.95;;;;;;;6.98;55.93;94854.56;5006456;28;20109;-76
2022/12/31 00:36:08;;;;;;;17.45;13.40;;;;;;;7.19;55.13;94848.19;4989687;28;20038;-77
2022/12/31 00:38:34;;;;;;;26.17;17.05;;;;;;;7.12;55.36;94854.81;4991448;28;20487;-76
2022/12/31 00:40:59;;;;;;;17.95;12.82;;;;;;;6.99;55.96;94855.34;4988705;28;20038;-75
2022/12/31 00:43:25;;;;;;;20.83;13.25;;;;;;;7.27;55.01;94862.75;4992364;28;20042;-76
2022/12/31 00:45:50;;;;;;;25.25;16.90;;;;;;;7.13;55.29;94859.03;4991190;28;20341;-78
2022/12/31 00:48:16;;;;;;;19.70;13.07;;;;;;;6.92;55.91;94855.59;4989342;28;20049;-75
2022/12/31 00:50:41;;;;;;;17.48;13.35;;;;;;;7.05;56.18;94862.22;4986883;28;20041;-74
2022/12/31 00:53:06;;;;;;;16.80;10.82;;;;;;;7.13;56.07;94874.94;4988334;28;20520;-75
2022/12/31 00:55:32;;;;;;;14.63;11.50;;;;;;;7.08;55.98;94872.28;4990963;28;20033;-74
2022/12/31 00:57:57;;;;;;;14.55;10.80;;;;;;;7.03;56.24;94870.44;5005784;28;20563;-75
2022/12/31 01:00:23;;;;;;;11.40;9.65;;;;;;;6.90;56.54;94860.34;4990697;28;20037;-75
2022/12/31 01:02:48;;;;;;;15.57;11.55;;;;;;;7.10;55.99;94859.56;4990705;28;20038;-77
2022/12/31 01:05:14;;;;;;;18.92;11.55;;;;;;;7.00;56.20;94854.28;4991030;28;20544;-75
2022/12/31 01:07:39;;;;;;;24.35;13.60;;;;;;;6.99;56.04;94858.00;4991401;28;20034;-77
2022/12/31 01:10:05;;;;;;;17.27;13.18;;;;;;;7.10;55.98;94878.88;4989774;28;20041;-76
2022/12/31 01:12:30;;;;;;;17.60;12.90;;;;;;;7.12;55.63;94868.03;4991238;28;20507;-76
2022/12/31 01:14:56;;;;;;;21.55;15.73;;;;;;;7.13;55.89;94883.66;4989528;28;20596;-76
2022/12/31 01:17:21;;;;;;;25.30;16.95;;;;;;;6.68;56.29;94863.25;4993124;28;20033;-77
2022/12/31 01:19:46;;;;;;;27.55;19.02;;;;;;;6.95;56.54;94883.38;4989673;28;20148;-77
2022/12/31 01:22:12;;;;;;;26.65;17.52;;;;;;;6.89;56.06;94863.28;4991132;28;20643;-76
2022/12/31 01:24:37;;;;;;;21.58;16.58;;;;;;;6.93;56.27;94894.22;4989247;28;20032;-77
2022/12/31 01:27:03;;;;;;;25.10;17.33;;;;;;;6.85;56.61;94892.09;4992208;28;20041;-76
2022/12/31 01:29:28;;;;;;;31.67;20.85;;;;;;;6.26;57.65;94892.50;4990392;28;20583;-76
2022/12/31 01:31:54;;;;;;;31.42;22.85;;;;;;;5.75;60.42;94894.09;4990639;28;20065;-76
2022/12/31 01:34:19;;;;;;;27.98;19.85;;;;;;;5.88;60.23;94898.91;4992270;28;20046;-76
2022/12/31 01:36:45;;;;;;;29.15;20.25;;;;;;;6.19;58.53;94902.53;4990305;28;20580;-79
2022/12/31 01:39:11;;;;;;;33.92;23.13;;;;;;;6.40;57.81;94909.47;4992267;28;20100;-76
2022/12/31 01:41:42;;;;;;;33.83;21.13;;;;;;;6.28;57.12;94884.31;4996279;28;20034;-77
2022/12/31 01:44:10;;;;;;;32.83;21.52;;;;;;;6.47;56.83;94908.41;4995705;28;20060;-77
2022/12/31 01:46:45;;;;;;;35.63;21.40;;;;;;;6.51;56.45;94904.97;4996876;28;20042;-76
2022/12/31 01:49:36;;;;;;;28.33;20.35;;;;;;;6.47;56.29;94903.91;4994145;28;20460;-76
2022/12/31 01:52:07;;;;;;;28.30;20.63;;;;;;;6.40;55.59;94876.97;4995897;28;20049;-77
2022/12/31 01:54:38;;;;;;;31.10;21.02;;;;;;;6.50;55.85;94906.06;4997331;28;20114;-76
2022/12/31 01:57:04;;;;;;;31.27;19.30;;;;;;;6.59;55.53;94906.34;4998760;28;20048;-76
2022/12/31 01:59:30;;;;;;;25.65;17.35;;;;;;;6.35;56.14;94911.28;4998863;28;20065;-77
2022/12/31 02:01:57;;;;;;;22.38;15.43;;;;;;;6.08;56.58;94882.38;4996449;28;20084;-78
2022/12/31 02:04:25;;;;;;;20.00;14.25;;;;;;;6.06;57.52;94902.19;4995890;28;20588;-76
2022/12/31 02:07:05;;;;;;;17.17;13.15;;;;;;;6.01;57.21;94889.75;4997813;28;20057;-76
2022/12/31 02:09:32;;;;;;;18.92;12.50;;;;;;;6.04;57.16;94904.28;4998569;28;20032;-76
2022/12/31 02:11:58;;;;;;;27.85;17.83;;;;;;;6.12;56.69;94914.34;4995495;28;20049;-76
2022/12/31 02:14:33;;;;;;;27.58;17.42;;;;;;;6.17;56.30;94903.81;5014248;28;20514;-77
2022/12/31 02:17:08;;;;;;;;;;;;;;;6.24;56.35;94914.94;4998482;28;20046;-77
2022/12/31 02:20:11;;;;;;;20.43;12.80;;;;;;;6.18;56.61;94916.78;4996343;28;19940;-77
2022/12/31 02:22:58;;;;;;;18.60;12.85;;;;;;;6.21;56.89;94918.13;4996324;28;20037;-77
2022/12/31 02:25:50;;;;;;;14.57;11.63;;;;;;;6.11;57.08;94915.41;4997853;28;20046;-77
2022/12/31 02:28:19;;;;;;;17.05;11.85;;;;;;;6.19;56.73;94918.38;5011950;28;20514;-75
2022/12/31 02:30:51;;;;;;;20.50;11.57;;;;;;;6.11;56.84;94900.34;4996472;28;20516;-77
2022/12/31 02:33:36;;;;;;;21.90;12.40;;;;;;;6.07;56.80;94919.63;4978148;28;20042;-76
2022/12/31 02:36:09;;;;;;;17.05;12.25;;;;;;;5.96;56.88;94901.09;4996962;28;20065;-76
2022/12/31 02:38:41;;;;;;;16.90;12.00;;;;;;;6.17;56.46;94925.75;4994518;28;20140;-76
2022/12/31 02:44:00;;;;;;;16.67;11.70;;;;;;;6.28;56.54;94916.81;4996524;28;20041;-76
2022/12/31 02:46:38;;;;;;;18.10;11.65;;;;;;;6.34;56.37;94936.13;4996332;28;20030;-77
2022/12/31 02:49:22;;;;;;;20.25;12.85;;;;;;;6.30;56.25;94922.66;4996458;28;20059;-76
2022/12/31 02:52:05;;;;;;;15.77;11.15;;;;;;;6.33;55.83;94937.16;4988807;28;20613;-77
2022/12/31 02:54:42;;;;;;;15.95;11.93;;;;;;;6.16;56.06;94933.94;4986187;28;20039;-75
2022/12/31 02:57:20;;;;;;;15.95;11.70;;;;;;;6.23;56.36;94937.13;4987028;28;20053;-74
2022/12/31 03:02:50;;;;;;;16.73;11.90;;;;;;;6.07;56.53;94924.91;4988534;28;20049;-76
2022/12/31 03:05:20;;;;;;;13.85;11.10;;;;;;;6.06;56.44;94936.50;4994076;28;20053;-76
2022/12/31 03:07:45;;;;;;;16.02;11.25;;;;;;;6.05;56.38;94927.00;4995138;28;20030;-77
2022/12/31 03:10:11;;;;;;;16.48;11.73;;;;;;;5.93;56.64;94924.53;5008280;28;20045;-77
2022/12/31 03:12:47;;;;;;;19.05;11.55;;;;;;;6.03;56.42;94921.97;4992492;28;20029;-76
2022/12/31 03:15:28;;;;;;;15.88;11.25;;;;;;;5.87;56.56;94907.13;4993474;28;20069;-76
2022/12/31 03:17:59;;;;;;;16.25;11.50;;;;;;;5.98;56.56;94922.72;4992313;28;20042;-76
2022/12/31 03:23:18;;;;;;;16.15;11.60;;;;;;;6.16;56.45;94923.38;4994583;28;20593;-76
2022/12/31 03:25:44;;;;;;;13.75;10.32;;;;;;;6.16;56.30;94918.09;4992811;28;20103;-76
2022/12/31 03:28:13;;;;;;;14.15;10.65;;;;;;;6.21;55.92;94904.91;4993262;28;20492;-77
2022/12/31 03:30:42;;;;;;;16.88;10.65;;;;;;;6.05;56.10;94901.38;4991595;28;20108;-76
2022/12/31 03:33:07;;;;;;;15.13;10.18;;;;;;;5.81;56.25;94877.25;4993083;28;20036;-75
2022/12/31 03:35:35;;;;;;;15.55;9.48;;;;;;;6.03;56.16;94906.13;4989724;28;20042;-76
2022/12/31 03:38:02;;;;;;;15.52;9.60;;;;;;;6.10;56.39;94917.25;4992814;28;20038;-78
2022/12/31 03:40:29;;;;;;;13.98;9.85;;;;;;;6.22;55.51;94927.59;4990796;28;20723;-76
2022/12/31 03:42:55;;;;;;;14.77;10.30;;;;;;;5.81;56.12;94889.66;4993894;28;20030;-76
2022/12/31 03:45:20;;;;;;;12.00;9.52;;;;;;;5.75;56.85;94911.78;4985714;28;20563;-76
2022/12/31 03:47:46;;;;;;;14.65;9.95;;;;;;;5.82;56.62;94913.13;4993490;28;20043;-78
2022/12/31 03:50:14;;;;;;;16.13;10.38;;;;;;;5.97;56.59;94931.69;5007632;28;20033;-76
2022/12/31 03:52:40;;;;;;;12.60;9.95;;;;;;;5.95;56.84;94933.81;4992755;28;20511;-77
2022/12/31 03:55:07;;;;;;;16.05;10.82;;;;;;;5.89;56.73;94926.91;4989797;28;20285;-77
2022/12/31 03:57:32;;;;;;;12.98;9.40;;;;;;;5.93;56.67;94943.03;4993107;28;20188;-76
2022/12/31 03:59:58;;;;;;;12.85;9.18;;;;;;;5.82;56.35;94918.41;4991482;28;20045;-76
2022/12/31 04:02:24;;;;;;;12.32;8.32;;;;;;;5.96;56.15;94924.06;4990963;28;20614;-77
2022/12/31 04:04:49;;;;;;;13.93;8.70;;;;;;;5.84;56.22;94910.25;4989331;28;20045;-76
2022/12/31 04:07:15;;;;;;;11.68;8.55;;;;;;;5.85;56.62;94920.56;4992491;28;20033;-75
2022/12/31 04:09:40;;;;;;;16.42;11.15;;;;;;;5.85;56.38;94928.47;4991287;28;20562;-78
2022/12/31 04:12:06;;;;;;;16.05;9.68;;;;;;;5.99;55.91;94929.59;5008253;28;20618;-76
2022/12/31 04:14:31;;;;;;;17.38;10.68;;;;;;;6.00;55.82;94920.63;4990518;28;20030;-77
2022/12/31 04:16:57;;;;;;;16.73;11.00;;;;;;;6.12;55.15;94938.09;4992208;28;20054;-76
2022/12/31 04:19:22;;;;;;;16.80;9.85;;;;;;;5.96;55.94;94940.69;4987809;28;20566;-76
2022/12/31 04:21:47;;;;;;;15.30;10.77;;;;;;;5.89;55.99;94948.03;4991161;28;20045;-77
2022/12/31 04:24:13;;;;;;;14.43;10.05;;;;;;;5.72;55.98;94921.03;4991094;28;20486;-76
2022/12/31 04:26:38;;;;;;;14.18;10.68;;;;;;;5.77;55.83;94942.19;4991904;28;20042;-76
2022/12/31 04:29:04;;;;;;;14.05;10.07;;;;;;;5.79;56.19;94947.97;4991291;28;20029;-77
2022/12/31 04:31:30;;;;;;;11.10;8.60;;;;;;;5.67;56.26;94939.47;4992182;28;20053;-76
2022/12/31 04:33:55;;;;;;;13.27;7.85;;;;;;;5.71;56.39;94952.94;4990456;28;20026;-76
2022/12/31 04:36:21;;;;;;;11.32;7.55;;;;;;;5.74;56.09;94955.88;4992562;28;20258;-76
2022/12/31 04:38:46;;;;;;;14.90;8.07;;;;;;;5.81;55.88;94959.09;4989849;28;20652;-78
2022/12/31 04:41:18;;;;;;;11.77;8.18;;;;;;;5.72;56.04;94965.91;4993136;28;20107;-76
2022/12/31 04:43:52;;;;;;;13.85;8.50;;;;;;;5.58;56.68;94964.72;5005635;28;20037;-77
2022/12/31 04:46:21;;;;;;;7.80;6.93;;;;;;;5.56;56.57;94961.56;4993047;28;20033;-76
2022/12/31 04:48:46;;;;;;;10.88;7.05;;;;;;;5.59;56.49;94961.03;4990959;28;20096;-77
2022/12/31 04:51:12;;;;;;;15.80;8.18;;;;;;;5.56;56.69;94961.56;4992326;28;20615;-77
2022/12/31 04:53:38;;;;;;;10.57;8.00;;;;;;;5.55;57.13;94966.03;4991682;28;20391;-75
2022/12/31 04:56:05;;;;;;;13.40;8.98;;;;;;;5.60;56.98;94970.56;4990474;28;20631;-77
2022/12/31 04:58:31;;;;;;;11.52;8.07;;;;;;;5.50;56.95;94957.28;4989870;28;20235;-78
2022/12/31 05:00:57;;;;;;;12.63;8.32;;;;;;;5.66;56.78;94971.38;4990214;28;20373;-77
2022/12/31 05:03:24;;;;;;;13.82;8.98;;;;;;;5.49;57.05;94960.97;4993596;28;20059;-77
2022/12/31 05:05:49;;;;;;;14.20;8.93;;;;;;;5.53;57.19;94967.31;4988799;28;20166;-76
2022/12/31 05:08:16;;;;;;;10.02;7.63;;;;;;;5.61;57.22;94980.06;4991805;28;20034;-77
2022/12/31 05:10:44;;;;;;;15.27;7.38;;;;;;;5.83;56.28;94980.72;4991767;28;20850;-76
2022/12/31 05:13:09;;;;;;;9.32;7.10;;;;;;;5.64;56.39;94974.28;4989849;28;21361;-76
2022/12/31 05:15:34;;;;;;;14.77;7.72;;;;;;;5.60;56.67;94990.88;4990926;28;20124;-76
2022/12/31 05:18:00;;;;;;;11.75;8.07;;;;;;;5.57;56.99;94995.63;4990026;28;20081;-75
2022/12/31 05:20:25;;;;;;;10.15;7.30;;;;;;;5.55;56.98;94996.91;4991433;28;20623;-77
2022/12/31 05:22:51;;;;;;;11.30;7.63;;;;;;;5.58;56.84;95005.09;4989709;28;20049;-76
2022/12/31 05:25:16;;;;;;;10.45;7.85;;;;;;;5.56;57.14;95004.59;4990261;28;20575;-76
2022/12/31 05:27:41;;;;;;;12.93;8.88;;;;;;;5.43;57.16;94991.03;4992821;28;20056;-78
2022/12/31 05:30:07;;;;;;;14.48;9.40;;;;;;;5.43;57.12;94993.66;4990448;28;20659;-77
2022/12/31 05:32:33;;;;;;;12.85;8.40;;;;;;;5.39;57.23;94987.28;4990161;28;20056;-76
2022/12/31 05:34:59;;;;;;;11.60;8.38;;;;;;;5.53;57.06;95010.34;5006717;28;20038;-76
2022/12/31 05:37:26;;;;;;;10.65;7.70;;;;;;;5.38;57.17;95001.53;4989023;28;20515;-77
2022/12/31 05:39:52;;;;;;;13.15;8.75;;;;;;;5.45;57.11;95008.19;4992183;28;20465;-77
2022/12/31 05:42:17;;;;;;;10.80;8.48;;;;;;;5.38;57.06;95004.94;4991158;28;20022;-77
2022/12/31 05:44:43;;;;;;;11.68;8.77;;;;;;;5.36;56.52;94998.34;4991946;28;20528;-77
2022/12/31 05:47:08;;;;;;;12.13;8.57;;;;;;;5.28;56.65;94996.97;4989047;28;20091;-77
2022/12/31 05:49:33;;;;;;;10.10;8.07;;;;;;;5.34;56.14;94997.78;4990339;28;20331;-76
2022/12/31 05:51:59;;;;;;;11.95;9.90;;;;;;;5.25;56.64;95008.00;4988327;28;20025;-75
2022/12/31 05:54:24;;;;;;;11.27;8.82;;;;;;;5.18;56.52;95006.63;4991112;28;20413;-77
2022/12/31 05:56:50;;;;;;;16.65;10.60;;;;;;;5.38;56.08;95014.72;4988946;28;20053;-77
2022/12/31 05:59:15;;;;;;;15.27;10.73;;;;;;;5.20;56.26;95005.31;4990991;28;20037;-76
2022/12/31 06:01:40;;;;;;;17.13;12.55;;;;;;;5.11;56.35;95007.63;4992155;28;20045;-76
2022/12/31 06:04:06;;;;;;;16.15;12.15;;;;;;;5.06;57.19;95018.13;4990136;28;20966;-78
2022/12/31 06:06:31;;;;;;;16.27;10.95;;;;;;;5.12;56.78;95016.34;5006660;28;20021;-76
2022/12/31 06:08:57;;;;;;;19.95;10.40;;;;;;;4.98;57.48;95026.50;4991991;28;20030;-76
2022/12/31 06:11:22;;;;;;;13.00;9.18;;;;;;;4.97;57.71;95038.06;4991367;28;20038;-76
2022/12/31 06:13:48;;;;;;;12.82;8.73;;;;;;;4.96;58.11;95035.66;4989476;28;20046;-76
2022/12/31 06:16:13;;;;;;;14.30;10.70;;;;;;;4.47;58.42;94959.25;4990161;28;20092;-77
2022/12/31 06:18:38;;;;;;;17.70;11.00;;;;;;;4.96;58.51;95020.66;4989795;28;20394;-75
2022/12/31 06:21:04;;;;;;;16.67;12.00;;;;;;;5.14;58.59;95041.41;4991731;28;20069;-75
2022/12/31 06:23:30;;;;;;;17.85;11.35;;;;;;;5.07;58.67;95043.44;4989286;28;20377;-75
2022/12/31 06:25:55;;;;;;;16.33;11.75;;;;;;;4.97;58.49;95026.72;4992971;28;20030;-75
2022/12/31 06:28:21;;;;;;;16.35;10.88;;;;;;;5.08;58.55;95039.78;4993541;28;20057;-78
2022/12/31 06:30:47;;;;;;;14.70;10.73;;;;;;;5.06;58.74;95047.13;4996045;28;20050;-76
2022/12/31 06:33:12;;;;;;;14.15;10.98;;;;;;;5.14;59.06;95049.31;4993724;28;20742;-78
2022/12/31 06:35:38;;;;;;;14.95;11.35;;;;;;;5.20;59.07;95044.09;4994027;28;20038;-77
2022/12/31 06:38:03;;;;;;;19.15;11.60;;;;;;;5.13;59.09;95046.94;4994129;28;20616;-77
2022/12/31 06:40:29;;;;;;;23.02;11.73;;;;;;;5.24;59.23;95069.72;4988449;28;20038;-76
2022/12/31 06:42:54;;;;;;;18.88;12.18;;;;;;;5.28;59.35;95070.03;4989082;28;20516;-75
2022/12/31 06:45:20;;;;;;;17.25;11.75;;;;;;;5.28;59.28;95070.03;4989987;28;20610;-77
2022/12/31 06:47:45;;;;;;;15.73;11.27;;;;;;;5.18;59.21;95054.91;4982853;28;20115;-76
2022/12/31 06:50:10;;;;;;;23.00;13.82;;;;;;;5.47;59.42;95068.63;4985340;28;20552;-75
2022/12/31 06:52:36;;;;;;;21.15;12.45;;;;;;;5.39;59.52;95069.88;4981372;28;20132;-77
2022/12/31 06:55:03;;;;;;;19.20;12.95;;;;;;;5.42;59.69;95076.50;4984198;28;20069;-75
2022/12/31 06:57:29;;;;;;;21.83;13.98;;;;;;;5.44;59.54;95079.66;4986184;28;20595;-76
2022/12/31 06:59:54;;;;;;;23.80;14.52;;;;;;;5.50;59.44;95081.31;4983342;28;20029;-75
2022/12/31 07:02:44;;;;;;;21.15;14.45;;;;;;;5.59;59.60;95090.38;4984896;28;20412;-75
2022/12/31 07:05:25;;;;;;;22.48;13.95;;;;;;;5.63;59.13;95088.81;4986256;28;20635;-75
2022/12/31 07:07:56;;;;;;;22.27;13.57;;;;;;;5.68;58.66;95094.13;4987533;28;20060;-77
2022/12/31 07:10:46;;;;;;;31.35;17.73;;;;;;;5.74;59.05;95098.41;4989453;28;20049;-75
2022/12/31 07:13:37;;;;;;;32.33;20.75;;;;;;;5.82;58.80;95097.94;4990791;28;20042;-76
2022/12/31 07:16:33;;;;;;;26.67;18.90;;;;;;;5.87;58.97;95097.22;5006800;28;20412;-75
2022/12/31 07:19:05;;;;;;;30.30;20.38;;;;;;;5.89;58.82;95098.53;4991242;28;20068;-78
2022/12/31 07:21:36;;;;;;;30.27;19.65;;;;;;;6.00;59.01;95102.06;4994248;28;20135;-75
2022/12/31 07:24:04;;;;;;;29.48;20.27;;;;;;;6.01;58.81;95090.47;4991402;28;20038;-75
2022/12/31 07:27:00;;;;;;;32.20;22.13;;;;;;;6.02;59.39;95092.81;4990175;28;20172;-77
2022/12/31 07:29:31;;;;;;;31.65;20.90;;;;;;;6.13;59.42;95106.91;4989695;28;20034;-77
2022/12/31 07:32:04;;;;;;;34.35;22.20;;;;;;;6.13;59.27;95108.75;4982933;28;20136;-77
2022/12/31 07:35:02;;;;;;;33.17;22.17;;;;;;;6.20;59.42;95106.72;4990559;28;20030;-75
2022/12/31 07:37:33;;;;;;;33.45;21.42;;;;;;;6.22;58.79;95107.25;4979637;28;20700;-77
2022/12/31 07:40:23;;;;;;;32.38;21.95;;;;;;;6.35;58.49;95106.84;4991196;28;20028;-76
2022/12/31 07:43:17;;;;;;;38.03;22.88;;;;;;;6.27;58.98;95109.94;4991304;28;20106;-78
2022/12/31 07:45:55;;;;;;;35.22;23.42;;;;;;;6.34;58.46;95118.44;4983622;28;20386;-76
2022/12/31 07:48:26;;;;;;;32.75;23.35;;;;;;;6.34;58.44;95105.25;4968660;28;20078;-76
2022/12/31 07:50:55;;;;;;;33.17;24.40;;;;;;;6.35;58.57;95127.97;4981284;28;20063;-76
2022/12/31 07:53:23;;;;;;;43.03;29.40;;;;;;;6.47;58.52;95128.56;4979126;28;20045;-77
2022/12/31 07:55:54;;;;;;;38.80;24.48;;;;;;;6.49;58.43;95120.38;4968084;28;20117;-77
2022/12/31 07:58:58;;;;;;;46.03;25.35;;;;;;;6.57;57.97;95130.47;4956375;28;20044;-76
2022/12/31 08:01:36;;;;;;;37.28;25.92;;;;;;;6.57;57.92;95136.56;4943671;28;20290;-77
2022/12/31 08:04:06;;;;;;;44.83;26.55;;;;;;;6.54;58.26;95125.72;4965366;28;20178;-76
2022/12/31 08:06:45;;;;;;;34.85;24.90;;;;;;;6.65;58.00;95128.13;4967966;28;20018;-77
2022/12/31 08:09:23;;;;;;;39.22;24.52;;;;;;;6.59;57.91;95113.31;4966073;28;20363;-76
2022/12/31 08:12:00;;;;;;;35.55;22.52;;;;;;;6.70;57.54;95112.31;4976791;28;20413;-76
2022/12/31 08:14:27;;;;;;;39.53;25.25;;;;;;;6.57;57.46;95098.75;4982499;28;20515;-76
2022/12/31 08:16:54;;;;;;;32.42;21.90;;;;;;;6.54;57.96;95118.59;4985288;28;20046;-76
2022/12/31 08:19:24;;;;;;;30.20;19.90;;;;;;;6.81;57.63;95129.81;4981245;28;20042;-76
2022/12/31 08:21:59;;;;;;;30.30;18.65;;;;;;;6.55;57.42;95119.38;5003743;28;20040;-75
2022/12/31 08:24:34;;;;;;;32.05;22.58;;;;;;;6.75;57.40;95127.44;4977100;28;20025;-77
2022/12/31 08:26:59;;;;;;;;;;;;;;;6.82;57.69;95117.41;4976693;28;20069;-77
2022/12/31 08:29:48;;;;;;;27.98;18.70;;;;;;;6.91;57.10;95128.28;4975256;28;20447;-76
2022/12/31 08:32:26;;;;;;;30.58;21.75;;;;;;;5.77;60.40;95121.69;4982089;28;20041;-75
2022/12/31 08:35:14;;;;;;;28.35;20.60;;;;;;;6.15;60.51;95125.94;4981925;28;20396;-76
2022/12/31 08:37:49;;;;;;;29.42;20.48;;;;;;;6.60;58.95;95136.06;4981106;28;20076;-77
2022/12/31 08:40:21;;;;;;;;;;;;;;;6.69;59.09;95129.25;4979734;28;20046;-77
2022/12/31 08:43:12;;;;;;;33.58;22.02;;;;;;;6.23;60.60;95136.06;4979620;28;19991;-77
2022/12/31 08:45:45;;;;;;;34.40;23.17;;;;;;;6.17;60.26;95123.88;4973266;28;20479;-76
2022/12/31 08:48:29;;;;;;;30.15;18.45;;;;;;;5.51;62.08;95138.31;4977937;28;20038;-75
2022/12/31 08:50:54;;;;;;;33.92;21.63;;;;;;;5.56;63.44;95119.91;4988743;28;20096;-76
2022/12/31 08:53:20;;;;;;;41.38;24.65;;;;;;;5.68;62.98;95130.28;4988576;28;20073;-78
2022/12/31 08:55:51;;;;;;;35.20;21.50;;;;;;;5.60;63.06;95126.28;4985936;28;20523;-76
2022/12/31 08:58:41;;;;;;;35.63;22.45;;;;;;;5.30;64.79;95125.97;5005025;28;20599;-75
2022/12/31 09:01:08;;;;;;;32.97;23.48;;;;;;;5.88;62.90;95118.06;4978381;28;20081;-77
2022/12/31 09:03:45;;;;;;;36.90;22.48;;;;;;;5.97;61.89;95124.47;4983515;28;20018;-76
2022/12/31 09:06:16;;;;;;;34.35;22.05;;;;;;;6.10;61.91;95125.13;4984848;28;20030;-76
2022/12/31 09:09:05;;;;;;;32.78;21.75;;;;;;;6.69;60.32;95121.31;4981820;28;20037;-74
2022/12/31 09:11:39;;;;;;;36.50;23.20;;;;;;;6.49;60.14;95118.56;4982783;28;20038;-78
2022/12/31 09:14:24;;;;;;;30.87;20.57;;;;;;;6.29;60.23;95092.78;4986645;28;20041;-77
2022/12/31 09:17:08;;;;;;;30.67;21.95;;;;;;;6.95;58.65;95118.75;4978263;28;20054;-78
2022/12/31 09:19:34;;;;;;;32.90;20.02;;;;;;;6.85;58.69;95112.38;5001400;28;20135;-78
2022/12/31 09:21:59;;;;;;;28.40;18.42;;;;;;;6.65;59.11;95091.13;4986697;28;20305;-76
2022/12/31 09:24:25;;;;;;;30.83;20.98;;;;;;;7.21;57.09;95088.72;4986410;28;20441;-76
2022/12/31 09:27:20;;;;;;;43.30;25.17;;;;;;;6.99;58.33;95114.56;4986209;28;21148;-77
2022/12/31 09:30:04;;;;;;;26.02;17.70;;;;;;;6.71;58.49;95108.59;4979602;28;20046;-76
2022/12/31 09:32:33;;;;;;;30.42;18.80;;;;;;;6.73;58.37;95111.00;4980319;28;20204;-78
2022/12/31 09:35:16;;;;;;;29.90;18.38;;;;;;;6.79;58.09;95097.56;4981672;28;20456;-78
2022/12/31 09:37:44;;;;;;;25.83;18.30;;;;;;;6.96;57.95;95097.34;4981013;28;20520;-76
2022/12/31 09:40:28;;;;;;;24.52;18.48;;;;;;;7.50;56.61;95089.84;4979190;28;20704;-78
2022/12/31 09:43:24;;;;;;;33.00;20.08;;;;;;;7.68;55.40;95081.38;4996803;28;20194;-77
2022/12/31 09:46:17;;;;;;;30.98;19.95;;;;;;;7.40;55.77;95079.22;4973837;28;20077;-76
2022/12/31 09:49:24;;;;;;;28.17;19.08;;;;;;;7.08;57.01;95073.34;4976765;28;20411;-77
2022/12/31 09:51:50;;;;;;;29.60;19.10;;;;;;;7.05;56.56;95068.53;4968913;28;20046;-76
2022/12/31 09:54:21;;;;;;;29.55;18.98;;;;;;;6.65;58.46;95059.41;4981467;28;20083;-75
2022/12/31 09:57:02;;;;;;;28.42;19.65;;;;;;;6.93;58.04;95055.56;4978842;28;22559;-78
2022/12/31 09:59:52;;;;;;;31.75;19.50;;;;;;;7.14;57.54;95051.91;4988214;28;20469;-76
2022/12/31 10:02:46;;;;;;;25.55;19.95;;;;;;;6.92;57.54;95053.16;4979315;28;20064;-78
2022/12/31 10:05:24;;;;;;;25.58;19.48;;;;;;;7.03;57.56;95062.72;4983753;28;20443;-77
2022/12/31 10:08:05;;;;;;;32.22;20.35;;;;;;;7.58;56.05;95060.19;4991879;28;20050;-76
2022/12/31 10:10:45;;;;;;;27.17;17.88;;;;;;;7.86;54.71;95056.28;4992375;28;20049;-76
2022/12/31 10:13:26;;;;;;;26.25;17.45;;;;;;;7.12;56.42;95048.75;4983008;28;20100;-76
2022/12/31 10:15:58;;;;;;;27.17;15.95;;;;;;;7.62;55.53;95053.31;4984764;28;20516;-75
2022/12/31 10:18:44;;;;;;;23.92;16.25;;;;;;;8.05;54.26;95045.91;4988184;28;20030;-74
2022/12/31 10:21:31;;;;;;;26.17;17.02;;;;;;;7.63;55.67;95044.28;4984748;28;20387;-77
2022/12/31 10:24:22;;;;;;;28.08;17.17;;;;;;;7.98;55.52;95045.38;4989299;28;20068;-76
2022/12/31 10:27:20;;;;;;;29.33;18.02;;;;;;;8.04;54.21;95018.63;4992467;28;20050;-77
2022/12/31 10:30:13;;;;;;;23.08;16.45;;;;;;;8.13;54.49;95024.97;4985583;28;20037;-75
2022/12/31 10:33:06;;;;;;;22.58;15.88;;;;;;;8.32;54.01;95027.84;4991674;28;20133;-76
2022/12/31 10:35:42;;;;;;;23.90;16.73;;;;;;;8.39;53.89;95009.81;4986134;28;20045;-77
2022/12/31 10:38:08;;;;;;;28.42;16.83;;;;;;;8.45;53.56;95019.34;4985917;28;20451;-78
2022/12/31 10:40:58;;;;;;;23.50;17.25;;;;;;;7.93;54.85;95029.50;4978863;28;20081;-75
2022/12/31 10:44:02;;;;;;;25.35;16.05;;;;;;;8.04;55.42;95018.63;4992207;28;20062;-78
2022/12/31 10:46:53;;;;;;;26.05;18.77;;;;;;;7.65;55.43;95002.47;4952480;28;20046;-78
2022/12/31 10:50:02;;;;;;;29.83;21.33;;;;;;;7.75;55.25;95019.44;4984858;28;20037;-75
2022/12/31 10:52:52;;;;;;;34.13;22.08;;;;;;;8.01;55.00;95019.16;4980338;28;20042;-77
2022/12/31 10:55:37;;;;;;;35.63;22.90;;;;;;;8.01;54.96;95018.38;4982795;28;20046;-74
2022/12/31 10:58:18;;;;;;;36.13;24.02;;;;;;;8.13;54.60;95016.22;4984716;28;20641;-74
2022/12/31 11:00:49;;;;;;;34.13;24.02;;;;;;;8.69;53.19;95013.41;4981673;28;20540;-74
2022/12/31 11:04:03;;;;;;;31.75;22.45;;;;;;;8.90;52.88;95009.59;4984678;28;20048;-76
2022/12/31 11:06:55;;;;;;;34.63;23.45;;;;;;;9.19;51.84;95010.53;4927408;28;20137;-77
2022/12/31 11:09:32;;;;;;;31.45;23.35;;;;;;;9.48;51.22;95012.47;4972115;28;20081;-75
2022/12/31 11:12:16;;;;;;;31.35;22.55;;;;;;;9.23;51.27;95008.91;4983462;28;20038;-75
2022/12/31 11:15:16;;;;;;;40.08;25.15;;;;;;;9.06;52.38;95005.00;4986971;28;20037;-76
2022/12/31 11:18:09;;;;;;;34.25;24.42;;;;;;;9.25;51.98;95012.06;4993815;28;20030;-77
2022/12/31 11:20:45;;;;;;;38.33;26.95;;;;;;;9.21;51.80;95000.41;4989897;28;20049;-76
2022/12/31 11:23:33;;;;;;;38.28;25.60;;;;;;;9.67;51.02;95000.09;4990619;28;20049;-76
2022/12/31 11:26:28;;;;;;;32.95;23.65;;;;;;;9.97;50.44;94991.06;4991139;28;20038;-77
2022/12/31 11:29:21;;;;;;;35.17;22.65;;;;;;;10.13;49.86;94987.19;4991136;28;20140;-77
2022/12/31 11:32:00;;;;;;;38.40;24.17;;;;;;;10.30;49.64;94996.31;5006786;28;20034;-76
2022/12/31 11:34:37;;;;;;;28.23;22.05;;;;;;;10.46;48.83;94994.31;4988388;28;20444;-76
2022/12/31 11:37:13;;;;;;;35.72;23.00;;;;;;;10.64;48.22;94995.44;4986015;28;20034;-76
2022/12/31 11:40:00;;;;;;;30.23;22.60;;;;;;;10.45;48.41;94997.25;4988095;28;20038;-76
2022/12/31 11:42:59;;;;;;;37.45;23.50;;;;;;;10.35;48.36;94986.69;4987744;28;20084;-76
2022/12/31 11:45:39;;;;;;;34.13;22.60;;;;;;;10.67;47.91;94986.88;4981177;28;20046;-74
2022/12/31 11:48:43;;;;;;;34.00;24.77;;;;;;;10.57;47.98;94979.81;4990087;28;20033;-77
2022/12/31 11:51:46;;;;;;;36.53;24.75;;;;;;;9.87;49.81;94976.03;4987492;28;20312;-77
2022/12/31 11:55:00;;;;;;;38.30;23.75;;;;;;;10.06;49.47;94979.56;4988807;28;20030;-76
2022/12/31 11:57:34;;;;;;;37.60;25.45;;;;;;;9.90;50.01;94980.75;4984359;28;20368;-76
2022/12/31 12:00:15;;;;;;;86.28;54.75;;;;;;;10.12;49.49;94967.78;4987979;28;20061;-76
2022/12/31 12:02:50;;;;;;;42.70;27.95;;;;;;;9.96;49.99;94978.84;5006237;28;20053;-76
2022/12/31 12:05:18;;;;;;;;;;;;;;;10.16;49.33;94984.78;4990406;28;20490;-77